createdAt,value
2019-03-12T00:02:50.505Z,78.70
2019-03-12T00:07:53.727Z,78.31
2019-03-12T00:12:57.285Z,79.16
2019-03-12T00:18:00.103Z,79.73
2019-03-12T00:23:03.355Z,78.80
2019-03-12T00:28:06.227Z,78.47
2019-03-12T00:33:09.656Z,78.43
2019-03-12T00:43:14.849Z,79.83
2019-03-12T00:48:18.426Z,80.57
2019-03-12T00:53:21.704Z,80.29
2019-03-12T00:58:25.365Z,79.80
2019-03-12T01:03:28.212Z,79.87
2019-03-12T01:08:30.738Z,79.84
2019-03-12T01:13:33.581Z,80.63
2019-03-12T01:18:36.811Z,81.71
2019-03-12T01:23:39.829Z,83.06
2019-03-12T01:28:42.969Z,83.06
2019-03-12T01:33:46.492Z,82.09
2019-03-12T01:38:49.702Z,82.16
2019-03-12T01:43:53.158Z,82.54
2019-03-12T01:48:56.690Z,83.31
2019-03-12T01:53:59.910Z,83.86
2019-03-12T01:59:03.166Z,83.70
2019-03-12T02:04:06.433Z,85.23
2019-03-12T02:09:09.956Z,85.80
2019-03-12T02:14:23.611Z,86.13
2019-03-12T02:19:26.934Z,87.39
2019-03-12T02:24:30.222Z,89.04
2019-03-12T02:29:33.550Z,89.36
2019-03-12T02:34:36.721Z,90.64
2019-03-12T02:39:40.600Z,91.02
2019-03-12T02:44:43.778Z,91.72
2019-03-12T02:49:46.641Z,91.68
2019-03-12T02:54:49.837Z,91.58
2019-03-12T02:59:52.995Z,91.37
2019-03-12T03:04:56.317Z,90.56
2019-03-12T03:09:59.896Z,91.29
2019-03-12T03:15:10.030Z,91.61
2019-03-12T03:20:13.824Z,92.42
2019-03-12T03:25:16.817Z,93.44
2019-03-12T03:30:21.692Z,92.30
2019-03-12T03:35:24.585Z,91.62
2019-03-12T03:40:27.479Z,91.08
2019-03-12T03:45:30.010Z,93.37
2019-03-12T03:50:33.503Z,93.59
2019-03-12T03:55:36.401Z,94.60
2019-03-12T04:00:39.919Z,94.74
2019-03-12T04:05:43.361Z,94.36
2019-03-12T04:10:46.269Z,94.67
2019-03-12T04:15:49.660Z,94.52
2019-03-12T04:20:52.173Z,93.84
2019-03-12T04:25:55.314Z,94.45
2019-03-12T04:30:58.669Z,94.63
2019-03-12T04:36:02.223Z,95.89
2019-03-12T04:41:05.036Z,97.13
2019-03-12T04:46:07.524Z,97.54
2019-03-12T04:51:10.393Z,98.66
2019-03-12T04:56:13.692Z,98.98
2019-03-12T05:01:16.888Z,98.67
2019-03-12T05:06:20.039Z,98.51
2019-03-12T05:11:23.535Z,99.28
2019-03-12T05:16:26.422Z,99.30
2019-03-12T05:21:28.966Z,98.90
2019-03-12T05:26:32.181Z,99.31
2019-03-12T05:31:35.329Z,98.79
2019-03-12T05:36:38.551Z,99.83
2019-03-12T05:41:41.758Z,99.78
2019-03-12T05:46:44.964Z,100.00
2019-03-12T05:51:48.190Z,100.00
2019-03-12T05:56:51.496Z,100.00
2019-03-12T06:01:54.638Z,100.00
2019-03-12T06:06:57.483Z,100.00
2019-03-12T06:12:00.709Z,100.00
2019-03-12T06:17:04.105Z,100.00
2019-03-12T06:22:07.340Z,100.00
2019-03-12T06:27:10.606Z,100.00
2019-03-12T06:32:31.885Z,100.00
2019-03-12T06:38:03.522Z,100.00
2019-03-12T06:43:25.914Z,100.00
2019-03-12T06:48:36.052Z,100.00
2019-03-12T06:53:58.553Z,100.00
2019-03-12T06:59:27.235Z,100.00
2019-03-12T07:04:43.580Z,100.00
2019-03-12T07:09:56.815Z,100.00
2019-03-12T07:15:34.217Z,100.00
2019-03-12T07:20:50.952Z,100.00
2019-03-12T07:26:15.560Z,100.00
2019-03-12T07:31:25.706Z,99.51
2019-03-12T07:36:36.317Z,99.53
2019-03-12T07:41:59.198Z,99.48
2019-03-12T07:47:16.862Z,98.85
2019-03-12T07:52:39.416Z,99.02
2019-03-12T07:57:50.415Z,99.13
2019-03-12T08:03:11.946Z,98.31
2019-03-12T08:08:27.129Z,97.30
2019-03-12T08:13:52.480Z,96.33
2019-03-12T08:19:14.002Z,95.99
2019-03-12T08:24:39.129Z,95.04
2019-03-12T08:30:00.462Z,94.76
2019-03-12T08:35:23.948Z,94.35
2019-03-12T08:40:37.801Z,93.28
2019-03-12T08:45:58.841Z,91.67
2019-03-12T08:51:07.469Z,90.40
2019-03-12T08:56:38.632Z,88.79
2019-03-12T09:02:03.661Z,86.26
2019-03-12T09:07:13.112Z,85.05
2019-03-12T09:12:44.490Z,85.18
2019-03-12T09:18:05.928Z,85.14
2019-03-12T09:23:27.025Z,83.48
2019-03-12T09:28:39.170Z,82.78
2019-03-12T09:33:58.770Z,82.38
2019-03-12T09:39:10.373Z,81.77
2019-03-12T09:44:35.807Z,80.98
2019-03-12T09:50:01.952Z,80.36
2019-03-12T09:55:23.692Z,79.87
2019-03-12T10:01:01.105Z,79.82
2019-03-12T10:06:22.236Z,79.97
2019-03-12T10:11:41.519Z,80.75
2019-03-12T10:17:05.621Z,81.05
2019-03-12T10:22:28.094Z,83.88
2019-03-12T10:27:56.385Z,84.03
2019-03-12T10:33:33.449Z,84.75
2019-03-12T10:39:18.366Z,83.67
2019-03-12T10:44:36.566Z,84.27
2019-03-12T10:49:39.436Z,84.32
2019-03-12T10:54:42.747Z,84.14
2019-03-12T10:59:46.057Z,84.41
2019-03-12T11:04:49.204Z,83.55
2019-03-12T11:09:52.390Z,84.22
2019-03-12T11:14:55.289Z,84.44
2019-03-12T11:19:58.779Z,84.81
2019-03-12T11:25:01.970Z,86.28
2019-03-12T11:30:06.687Z,87.11
2019-03-12T11:35:09.661Z,88.04
2019-03-12T11:40:14.936Z,89.05
2019-03-12T11:45:20.448Z,90.50
2019-03-12T11:50:22.970Z,92.27
2019-03-12T11:55:26.075Z,93.38
2019-03-12T12:00:31.682Z,94.26
2019-03-12T12:05:34.960Z,94.22
2019-03-12T12:10:38.593Z,93.42
2019-03-12T12:15:41.898Z,94.07
2019-03-12T12:20:45.215Z,94.38
2019-03-12T12:25:48.519Z,94.41
2019-03-12T12:30:51.420Z,93.85
2019-03-12T12:35:54.952Z,93.56
2019-03-12T12:40:59.377Z,91.71
2019-03-12T12:46:02.888Z,90.39
2019-03-12T12:51:06.118Z,89.74
2019-03-12T12:56:09.414Z,88.71
2019-03-12T13:01:12.762Z,88.63
2019-03-12T13:06:15.991Z,86.80
2019-03-12T13:11:19.366Z,86.51
2019-03-12T13:16:25.314Z,83.97
2019-03-12T13:21:27.170Z,83.99
2019-03-12T13:26:30.118Z,83.69
2019-03-12T13:31:33.420Z,83.22
2019-03-12T13:36:36.660Z,83.58
2019-03-12T13:41:39.505Z,83.24
2019-03-12T13:46:42.565Z,83.59
2019-03-12T13:51:45.973Z,85.02
2019-03-12T13:56:48.908Z,85.83
2019-03-12T14:01:52.063Z,86.01
2019-03-12T14:06:55.273Z,85.66
2019-03-12T14:11:59.290Z,85.04
2019-03-12T14:17:02.710Z,85.75
2019-03-12T14:22:08.125Z,84.85
2019-03-12T14:27:10.585Z,83.58
2019-03-12T14:32:13.886Z,83.84
2019-03-12T14:37:17.500Z,82.15
2019-03-12T14:42:21.021Z,81.48
2019-03-12T14:47:24.605Z,80.58
2019-03-12T14:52:31.482Z,80.65
2019-03-12T14:57:34.918Z,83.73
2019-03-12T15:02:37.869Z,82.52
2019-03-12T15:07:41.113Z,83.12
2019-03-12T15:12:44.892Z,85.04
2019-03-12T15:17:47.478Z,84.04
2019-03-12T15:22:50.673Z,84.26
2019-03-12T15:27:54.255Z,83.90
2019-03-12T15:32:57.537Z,83.05
2019-03-12T15:38:00.832Z,83.52
2019-03-12T15:43:04.466Z,82.83
2019-03-12T15:48:07.775Z,82.41
2019-03-12T15:53:10.751Z,82.12
2019-03-12T15:58:14.093Z,82.20
2019-03-12T16:03:17.731Z,81.02
2019-03-12T16:08:21.068Z,80.00
2019-03-12T16:13:24.790Z,82.28
2019-03-12T16:18:28.427Z,80.95
2019-03-12T16:23:31.358Z,81.04
2019-03-12T16:28:34.580Z,81.92
2019-03-12T16:33:38.104Z,81.83
2019-03-12T16:38:41.851Z,81.56
2019-03-12T16:43:45.346Z,81.84
2019-03-12T16:48:48.839Z,81.10
2019-03-12T16:53:52.064Z,82.19
2019-03-12T16:58:55.240Z,83.43
2019-03-12T17:03:58.791Z,82.28
2019-03-12T17:09:01.662Z,81.67
2019-03-12T17:14:05.230Z,80.44
2019-03-12T17:19:08.467Z,79.31
2019-03-12T17:24:11.863Z,78.53
2019-03-12T17:29:14.426Z,78.19
2019-03-12T17:34:17.456Z,77.04
2019-03-12T17:39:20.340Z,77.03
2019-03-12T17:44:23.328Z,77.68
2019-03-12T17:49:27.124Z,77.55
2019-03-12T17:54:32.096Z,77.58
2019-03-12T17:59:34.937Z,77.48
2019-03-12T18:04:38.237Z,78.14
2019-03-12T18:09:42.926Z,78.22
2019-03-12T18:14:46.299Z,79.20
2019-03-12T18:19:49.368Z,78.72
2019-03-12T18:24:52.521Z,79.42
2019-03-12T18:29:58.050Z,81.05
2019-03-12T18:35:02.452Z,81.31
2019-03-12T18:40:08.109Z,82.21
2019-03-12T18:45:13.791Z,82.64
2019-03-12T18:50:19.457Z,84.86
2019-03-12T18:55:57.191Z,85.17
2019-03-12T19:01:09.437Z,85.39
2019-03-12T19:06:12.827Z,84.49
2019-03-12T19:11:19.632Z,84.20
2019-03-12T19:16:26.634Z,84.56
2019-03-12T19:21:34.792Z,84.99
2019-03-12T19:26:40.772Z,84.95
2019-03-12T19:32:08.153Z,85.33
2019-03-12T19:37:14.569Z,85.05
2019-03-12T19:42:22.137Z,84.23
2019-03-12T19:47:35.148Z,84.55
2019-03-12T19:52:40.959Z,83.33
2019-03-12T19:57:51.108Z,83.22
2019-03-12T20:03:09.882Z,83.06
2019-03-12T20:08:10.927Z,82.71
2019-03-12T20:14:17.830Z,82.40
2019-03-12T20:20:20.156Z,83.01
2019-03-12T20:26:13.967Z,83.08
2019-03-12T20:31:53.266Z,82.75
2019-03-12T20:37:33.346Z,83.07
2019-03-12T20:43:22.752Z,84.43
2019-03-12T20:49:11.302Z,84.52
2019-03-12T20:54:59.119Z,82.87
2019-03-12T21:01:06.042Z,82.78
2019-03-12T21:06:52.883Z,80.19
2019-03-12T21:12:40.532Z,77.60
2019-03-12T21:18:38.995Z,75.33
2019-03-12T21:24:32.458Z,78.08
2019-03-12T21:29:45.919Z,82.75
2019-03-12T21:34:54.018Z,84.14
2019-03-12T21:40:00.549Z,86.63
2019-03-12T21:45:09.013Z,86.04
2019-03-12T21:50:13.216Z,87.37
2019-03-12T21:55:16.279Z,90.26
2019-03-12T22:00:19.704Z,89.44
2019-03-12T22:05:22.848Z,90.40
2019-03-12T22:10:26.529Z,90.82
2019-03-12T22:15:30.202Z,91.21
2019-03-12T22:20:33.918Z,90.91
2019-03-12T22:25:36.467Z,90.75
2019-03-12T22:30:40.215Z,90.77
2019-03-12T22:35:43.129Z,88.80
2019-03-12T22:40:46.677Z,89.18
2019-03-12T22:45:50.314Z,89.90
2019-03-12T22:50:54.040Z,90.84
2019-03-12T22:55:57.692Z,91.01
2019-03-12T23:01:01.578Z,89.19
2019-03-12T23:06:04.832Z,90.10
2019-03-12T23:11:08.071Z,90.22
2019-03-12T23:16:11.889Z,90.77
2019-03-12T23:21:15.083Z,92.21
2019-03-12T23:26:18.586Z,92.18
2019-03-12T23:31:21.605Z,93.62
2019-03-12T23:36:25.115Z,93.49
2019-03-12T23:41:28.405Z,93.87
2019-03-12T23:46:31.753Z,94.56
2019-03-12T23:51:35.058Z,94.99
2019-03-12T23:56:38.552Z,94.87
